AirNav   Air Wisconsin pilot careers
 
 622 users online  

D58 Timber Lake Municipal Airport
Timber Lake, South Dakota, USA

GOING TO TIMBER LAKE?


FAA INFORMATION EFFECTIVE 29 MARCH 2018

Location

FAA Identifier: D58
Lat/Long: 45-24-53.9550N / 101-04-59.5250W
45-24.899250N / 101-04.992083W
45.4149875 / -101.0832014
(estimated)
Elevation: 2193 ft. / 668.4 m (surveyed)
Variation: 10E (1985)
From city: 1 mile SW of TIMBER LAKE, SD
Time zone: UTC -6 (UTC -7 during Standard Time)
Zip code: 57656

Airport Operations

Airport use: Open to the public
Activation date: 11/1949
Control tower: no
ARTCC: MINNEAPOLIS CENTER
FSS: HURON FLIGHT SERVICE STATION
NOTAMs facility: HON (NOTAM-D service available)
Attendance: DAYLIGHT HOURS
Wind indicator: lighted
Segmented circle: no
Lights: ACTVT LIRL RY 12/30 - 122.8.
Beacon: white-green (lighted land airport)
Operates sunset to sunrise.

Airport Communications

CTAF: 122.9

Nearby radio navigation aids

VOR radial/distance  VOR name  Freq  Var
DPRr043/33.5DUPREE VOR/DME116.8010E

Airport Services

Parking: hangars
Airframe service: MINOR
Powerplant service: MINOR
Bottled oxygen: NONE
Bulk oxygen: NONE

Runway Information

Runway 12/30

Dimensions: 3300 x 150 ft. / 1006 x 46 m
Surface: turf, in fair condition
Runway edge lights: low intensity
LIGHTING SYSTEM IN POOR CONDITION. CHECK FOR NOTAMS
Runway edge markings: NSTD MKGS: RY 12/30 MKD WITH YELLOW/BLACK METAL A-FRAME MARKERS.
RUNWAY 12  RUNWAY 30
Latitude: 45-25.084833N45-24.715833N
Longitude: 101-05.441000W101-04.875333W
Elevation: 2176.0 ft.2181.0 ft.
Traffic pattern: leftleft
Markings: NSTDNSTD
Obstructions: none17 ft. road, 370 ft. from runway, 160 ft. right of centerline, 21:1 slope to clear

Airport Ownership and Management from official FAA records

Ownership: Publicly-owned
Owner: CITY OF TIMBER LAKE
PO BOX 431
TIMBER LAKE, SD 57656
Phone 605-865-3790
Manager: JAKE KRAFT
PO BOX 71
TIMBER LAKE, SD 57656
Phone 605-865-3500

Airport Operational Statistics

Aircraft based on the field: 7
Single engine airplanes: 7
    
Aircraft operations: avg 87/week *
99% local general aviation
<1% transient general aviation
* for 12-month period ending 22 June 2016

Additional Remarks

RY 12 FENCE 180 FT FROM THR; TOP OF FENCE BLO ELEV OF RY.
FOR FIELD CONDITIONS CALL AMGR 605-865-3500.
LIRL RY 12/30 OTS INDEFLY.
WILDLIFE ON AND INVOF ARPT.

Instrument Procedures

There are no published instrument procedures at D58.

Some nearby airports with instrument procedures:

84D - Cheyenne Eagle Butte Airport (27 nm S)
KMBG - Mobridge Municipal Airport (30 nm E)
KLEM - Lemmon Municipal Airport (52 nm NW)
0D8 - Gettysburg Municipal Airport (54 nm SE)
7L2 - Linton Municipal Airport (60 nm NE)
 
Loc | Ops | Rwys | IFR | FBO | Links
Com | Nav | Svcs | Stats | Notes

Mandan Aero Center
 
Area around D58 (Timber Lake Municipal Airport)
 
Road maps at: MapQuest Bing Google
 
Aerial photo
WARNING: Photo may not be current or correct
Aerial photo of D58 (Timber Lake Municipal Airport)
Photo by Steve Hamilton
Photo taken 28-Aug-2011
looking north.

Do you have a better or more recent aerial photo of Timber Lake Municipal Airport that you would like to share? If so, please send us your photo.

 
Sectional chart

 
Airport distance calculator
Flying to Timber Lake Municipal Airport? Find the distance to fly.

From to D58

Sunrise and sunset
Times for 25-Apr-2018
 Local
(UTC-6)
 Zulu
(UTC)
Morning civil twilight05:1111:11
Sunrise05:4311:43
Sunset19:4201:42
Evening civil twilight20:1402:14

Current date and time
Zulu (UTC)  26-Apr-2018 04:12:46
Local (UTC-6)  25-Apr-2018 22:12:46
 
METAR
84D 
27nm S 
SuperAWOS
260155Z AUTO 00000KT 10SM 12/M02 A2984
KMBG 
29nm E 
260352Z AUTO 18007KT 10SM CLR 10/01 A2981 RMK AO2 SLP098 T01000011
KD07 
46nm SW 
260356Z AUTO 30010KT 12/03 A2991 RMK AO1 SLP133 T01170028
D07 
46nm SW 
SuperAWOS
260155Z AUTO 00000KT 16/00 A2988
TAF
KMBG 
29nm E 
252303Z 2523/2618 19012KT P6SM SKC FM260500 30014KT P6SM BKN250 FM260600 35017G24KT P6SM BKN200 FM261300 35011KT P6SM FEW250
NOTAMs
Click for the latest NOTAMs
NOTAMs are issued by the DoD/FAA and will open in a separate window not controlled by AirNav.

 

 
 

Would you like to see your business listed on this page?

 If your business provides an interesting product or service to pilots, flight crews, aircraft, or users of the Timber Lake Municipal Airport, you should consider listing it here.  To start the listing process, click on the button below
 
Add a business
 

Other Pages about Timber Lake Municipal Airport

Update a link
 
Copyright © AirNav, LLC. All rights reserved. Privacy Policy  Contact